Canefield Airport

Partly cloudy and hazy
29oC (84oF)

Partly cloudy and hazy


Winds: North north easterly @ 02kts / 04km/h

Humidity: 64%

Barometric Pressure: 1017 mb

Accumulated Rainfall for May: 31.9 mm

Updated: 8:00 local time (12:00 UTC)

Douglas-Charles Airport

Fair and hazy
28oC (82oF)

Fair and hazy


Winds: East south easterly @ 08kts / 15km/h

Humidity: 77%

Barometric Pressure: 1019 mb

Accumulated Rainfall for May: 75.1 mm

Updated: 8:00 local time (12:00 UTC)

Satellite Imagery

Satellite Imagery
Click image for larger view. (Source: National Hurricane Center).

Aviation Routine Report (METAR)

Douglas-Charles: METAR TDPD 191200Z 12008KT 9999 FEW017 28/24 Q1019=
Canefield: METAR TDCF 1912000Z 02002KT 9999 SCT018 29/21 Q1017=